Aeroporto :
LOGIN :

Iscrizione | Disclaimer

   EN    FR    IT 

 










Sommario :    VFR   VFR Marginale   IFR   IFR Intensivo   IFR Molto Intensivo
Visibilità : 
Base nubi : 
>= 8 km
>= 3000ft
5 / 8 km
1000 / 3000 ft
1500m / 5 km
500 / 1000 ft
800 / 1500m
200 / 500 ft
< 800m
< 200 ft
Simboli :   Temporali  Nebbia  Neve Forte  Precipitazioni Forti  Vento > 20 kt
SIGMETs :   Varie  Temporali  Ghiacco  Turbolenza  Onda orograficha  Ceneri Vulcaniche







- Altitudine del aeroporto : 870 ft
- Codice IATA : ETZ
- Carte del aeroporto


LFJL - Metz Nancy Lorraine

ULTIMO METAR :
  • 211900Z AUTO 11006KT CAVOK 20/09 Q1026 NOSIG

METARs OBSOLETI :
  • 211830Z AUTO 08007KT CAVOK 21/10 Q1025 NOSIG
  • 211800Z AUTO 07006KT CAVOK 22/09 Q1025 NOSIG
  • 211730Z AUTO 07007KT CAVOK 23/08 Q1025 NOSIG
  • 211700Z AUTO 07009KT CAVOK 23/08 Q1025 NOSIG
  • 211630Z AUTO 08009KT CAVOK 24/08 Q1025 NOSIG
  • 211600Z AUTO 08009KT 050V120 CAVOK 24/08 Q1026 NOSIG

TAF TAF LFJL
Valido dal 21 a 18 ore il 22 a 18 ore UTC


211700Z 2118/2218 08007KT CAVOK
Nessun NOTAM noto per questo aeroporto.



MetMap, La meteo Aeronautica in un colpo d'occhio ! - Copyright ORBIFLY Dicembre 2007 - Disclaimer

ORBIFLY MET'MAP TEAM :

Programmazione e sviluppo : Alexandra Zaïnal
Concezione e sviluppo : Baudouin d'Aumeries
Co-Programmazione e sviluppo : Marc-Olivier Méhu
Supporto tecnico e logistico : Manuel Goepfert
Aiuto per la traduzione : Arnaldo La Scala

Contatto : metmap@orbifly.com




FONTI E CREDITI :

   NOAA